sensor_id;sensor_type;location;lat;lon;timestamp;pressure;altitude;pressure_sealevel;temperature;humidity
53868;BME280;41577;47.470;19.080;2024-01-15T21:30:09;98839.81;;;22.94;52.30
53868;BME280;41577;47.470;19.080;2024-01-15T21:30:27;98836.75;;;22.96;52.49
53868;BME280;41577;47.470;19.080;2024-01-15T21:30:46;98842.44;;;23.00;52.59
53868;BME280;41577;47.470;19.080;2024-01-15T21:31:37;98845.97;;;23.00;52.17
53868;BME280;41577;47.470;19.080;2024-01-15T21:31:54;98844.38;;;22.99;51.86
53868;BME280;41577;47.470;19.080;2024-01-15T21:32:11;98845.97;;;23.00;52.28
53868;BME280;41577;47.470;19.080;2024-01-15T21:32:28;98845.97;;;23.00;51.44
53868;BME280;41577;47.470;19.080;2024-01-15T21:32:45;98845.97;;;23.00;51.61
53868;BME280;41577;47.470;19.080;2024-01-15T21:37:13;98859.69;;;6.73;44.49
53868;BME280;41577;47.470;19.080;2024-01-15T21:37:30;98871.81;;;6.40;45.19
53868;BME280;41577;47.470;19.080;2024-01-15T21:37:47;98867.34;;;6.06;45.75
53868;BME280;41577;47.470;19.080;2024-01-15T21:38:04;98861.41;;;5.76;46.56
53868;BME280;41577;47.470;19.080;2024-01-15T21:38:21;98872.06;;;5.54;47.27
53868;BME280;41577;47.470;19.080;2024-01-15T21:38:38;98831.53;;;5.11;47.83
53868;BME280;41577;47.470;19.080;2024-01-15T21:38:55;98863.25;;;5.04;48.47
53868;BME280;41577;47.470;19.080;2024-01-15T21:39:12;98862.41;;;4.82;49.22
53868;BME280;41577;47.470;19.080;2024-01-15T21:39:29;98859.50;;;4.62;49.43
53868;BME280;41577;47.470;19.080;2024-01-15T21:39:46;98869.66;;;4.44;49.97
53868;BME280;41577;47.470;19.080;2024-01-15T21:40:04;98864.75;;;4.26;50.77
53868;BME280;41577;47.470;19.080;2024-01-15T21:40:32;98866.03;;;4.00;51.19
53868;BME280;41577;47.470;19.080;2024-01-15T21:40:50;98857.28;;;3.85;51.69
53868;BME280;41577;47.470;19.080;2024-01-15T21:49:03;98869.63;;;2.15;57.81
53868;BME280;41577;47.470;19.080;2024-01-15T21:49:29;98863.72;;;2.13;58.02
53868;BME280;41577;47.470;19.080;2024-01-15T21:50:38;98876.06;;;2.04;58.52
53868;BME280;41577;47.470;19.080;2024-01-15T21:50:54;98869.50;;;2.00;59.00
53868;BME280;41577;47.470;19.080;2024-01-15T21:51:11;98870.00;;;2.03;58.96
53868;BME280;41577;47.470;19.080;2024-01-15T21:51:28;98879.53;;;2.04;58.85
53868;BME280;41577;47.470;19.080;2024-01-15T21:51:44;98878.72;;;2.04;58.88
53868;BME280;41577;47.470;19.080;2024-01-15T21:52:01;98872.78;;;2.02;58.83
53868;BME280;41577;47.470;19.080;2024-01-15T21:52:18;98881.81;;;2.07;59.03
53868;BME280;41577;47.470;19.080;2024-01-15T21:52:35;98873.28;;;2.05;58.93
53868;BME280;41577;47.470;19.080;2024-01-15T21:52:51;98868.16;;;2.04;59.03
53868;BME280;41577;47.470;19.080;2024-01-15T21:53:08;98874.25;;;2.04;59.04
53868;BME280;41577;47.470;19.080;2024-01-15T21:53:25;98882.16;;;2.04;59.00
53868;BME280;41577;47.470;19.080;2024-01-15T21:53:42;98872.78;;;2.02;59.21
53868;BME280;41577;47.470;19.080;2024-01-15T21:53:59;98879.53;;;2.04;59.17
53868;BME280;41577;47.470;19.080;2024-01-15T21:54:16;98876.72;;;2.06;59.32
53868;BME280;41577;47.470;19.080;2024-01-15T21:54:32;98882.66;;;2.08;59.33
53868;BME280;41577;47.470;19.080;2024-01-15T21:54:49;98878.88;;;2.02;59.63
53868;BME280;41577;47.470;19.080;2024-01-15T21:55:06;98880.03;;;2.00;59.41
53868;BME280;41577;47.470;19.080;2024-01-15T21:55:23;98889.59;;;2.01;59.38
53868;BME280;41577;47.470;19.080;2024-01-15T21:55:40;98889.59;;;2.01;59.60
53868;BME280;41577;47.470;19.080;2024-01-15T21:55:57;98867.88;;;1.82;59.63
53868;BME280;41577;47.470;19.080;2024-01-15T21:56:13;98892.53;;;1.98;59.69
53868;BME280;41577;47.470;19.080;2024-01-15T21:56:30;98900.63;;;1.96;59.55
53868;BME280;41577;47.470;19.080;2024-01-15T21:56:47;98894.84;;;1.93;59.80
53868;BME280;41577;47.470;19.080;2024-01-15T21:57:04;98894.19;;;1.91;59.65
53868;BME280;41577;47.470;19.080;2024-01-15T21:57:21;98899.97;;;1.94;59.86
53868;BME280;41577;47.470;19.080;2024-01-15T21:57:37;98891.91;;;1.87;59.88
53868;BME280;41577;47.470;19.080;2024-01-15T21:57:54;98889.09;;;1.89;59.92
53868;BME280;41577;47.470;19.080;2024-01-15T21:58:11;98896.00;;;1.90;60.05
53868;BME280;41577;47.470;19.080;2024-01-15T21:58:28;98896.97;;;1.89;60.20
53868;BME280;41577;47.470;19.080;2024-01-15T21:58:44;98891.91;;;1.87;60.29
53868;BME280;41577;47.470;19.080;2024-01-15T21:59:01;98891.91;;;1.87;60.05
53868;BME280;41577;47.470;19.080;2024-01-15T21:59:18;98891.56;;;1.91;60.47
53868;BME280;41577;47.470;19.080;2024-01-15T21:59:34;98893.53;;;1.88;60.36
53868;BME280;41577;47.470;19.080;2024-01-15T21:59:51;98889.78;;;1.83;60.41
53868;BME280;41577;47.470;19.080;2024-01-15T22:00:09;98904.72;;;1.91;60.38
53868;BME280;41577;47.470;19.080;2024-01-15T22:00:26;98882.19;;;1.80;60.47
53868;BME280;41577;47.470;19.080;2024-01-15T22:00:42;98898.66;;;1.90;60.53
53868;BME280;41577;47.470;19.080;2024-01-15T22:00:59;98888.94;;;1.91;60.37
53868;BME280;41577;47.470;19.080;2024-01-15T22:01:16;98900.13;;;1.93;60.52
53868;BME280;41577;47.470;19.080;2024-01-15T22:01:33;98893.38;;;1.90;60.46
53868;BME280;41577;47.470;19.080;2024-01-15T22:01:50;98897.84;;;1.90;60.55
53868;BME280;41577;47.470;19.080;2024-01-15T22:02:06;98895.84;;;1.83;60.62
53868;BME280;41577;47.470;19.080;2024-01-15T22:02:23;98891.06;;;1.87;60.78
53868;BME280;41577;47.470;19.080;2024-01-15T22:02:40;98888.13;;;1.82;60.79
53868;BME280;41577;47.470;19.080;2024-01-15T22:02:57;98893.06;;;1.85;61.03
53868;BME280;41577;47.470;19.080;2024-01-15T22:03:14;98894.84;;;1.84;60.79
53868;BME280;41577;47.470;19.080;2024-01-15T22:03:31;98893.88;;;1.85;60.90
53868;BME280;41577;47.470;19.080;2024-01-15T22:03:47;98883.19;;;1.79;60.82
53868;BME280;41577;47.470;19.080;2024-01-15T22:04:04;98889.94;;;1.81;61.27
53868;BME280;41577;47.470;19.080;2024-01-15T22:04:21;98894.84;;;1.84;60.90
53868;BME280;41577;47.470;19.080;2024-01-15T22:04:38;98881.06;;;1.74;61.13
53868;BME280;41577;47.470;19.080;2024-01-15T22:04:55;98890.09;;;1.80;61.39
53868;BME280;41577;47.470;19.080;2024-01-15T22:05:11;98891.59;;;1.74;61.09
53868;BME280;41577;47.470;19.080;2024-01-15T22:05:28;98895.69;;;1.77;61.31
53868;BME280;41577;47.470;19.080;2024-01-15T22:05:46;98903.25;;;1.80;61.31
53868;BME280;41577;47.470;19.080;2024-01-15T22:06:03;98902.78;;;1.76;61.25
53868;BME280;41577;47.470;19.080;2024-01-15T22:06:20;98906.88;;;1.79;61.50
53868;BME280;41577;47.470;19.080;2024-01-15T22:06:37;98902.94;;;1.75;61.66
53868;BME280;41577;47.470;19.080;2024-01-15T22:06:54;98901.31;;;1.74;61.48
53868;BME280;41577;47.470;19.080;2024-01-15T22:07:11;98891.94;;;1.71;61.59
53868;BME280;41577;47.470;19.080;2024-01-15T22:07:27;98917.41;;;1.79;61.45
53868;BME280;41577;47.470;19.080;2024-01-15T22:07:44;98897.00;;;1.73;61.53
53868;BME280;41577;47.470;19.080;2024-01-15T22:08:01;98912.31;;;1.77;61.41
53868;BME280;41577;47.470;19.080;2024-01-15T22:08:18;98905.56;;;1.75;61.39
53868;BME280;41577;47.470;19.080;2024-01-15T22:08:34;98909.38;;;1.80;61.65
53868;BME280;41577;47.470;19.080;2024-01-15T22:08:51;98908.66;;;1.86;61.64
53868;BME280;41577;47.470;19.080;2024-01-15T22:09:08;98905.72;;;1.81;61.54
53868;BME280;41577;47.470;19.080;2024-01-15T22:09:25;98907.19;;;1.84;61.24
53868;BME280;41577;47.470;19.080;2024-01-15T22:09:42;98899.97;;;1.86;61.30
53868;BME280;41577;47.470;19.080;2024-01-15T22:09:58;98906.22;;;1.85;61.20
53868;BME280;41577;47.470;19.080;2024-01-15T22:10:15;98905.38;;;1.84;61.18
53868;BME280;41577;47.470;19.080;2024-01-15T22:10:32;98913.28;;;1.84;61.34
53868;BME280;41577;47.470;19.080;2024-01-15T22:10:48;98908.00;;;1.84;61.23
53868;BME280;41577;47.470;19.080;2024-01-15T22:11:05;98914.94;;;1.85;61.12
53868;BME280;41577;47.470;19.080;2024-01-15T22:11:22;98904.09;;;1.80;61.07
53868;BME280;41577;47.470;19.080;2024-01-15T22:11:39;98918.38;;;1.86;61.14
53868;BME280;41577;47.470;19.080;2024-01-15T22:11:58;98912.47;;;1.84;61.38
53868;BME280;41577;47.470;19.080;2024-01-15T22:12:15;98912.47;;;1.84;61.18
53868;BME280;41577;47.470;19.080;2024-01-15T22:12:32;98923.81;;;1.84;61.15
53868;BME280;41577;47.470;19.080;2024-01-15T22:12:48;98910.66;;;1.84;61.23
53868;BME280;41577;47.470;19.080;2024-01-15T22:13:05;98916.91;;;1.83;61.27
53868;BME280;41577;47.470;19.080;2024-01-15T22:13:22;98916.91;;;1.83;61.47
53868;BME280;41577;47.470;19.080;2024-01-15T22:13:38;98916.59;;;1.78;61.46
53868;BME280;41577;47.470;19.080;2024-01-15T22:13:55;98919.69;;;1.82;61.49
53868;BME280;41577;47.470;19.080;2024-01-15T22:14:12;98915.75;;;1.78;61.40
53868;BME280;41577;47.470;19.080;2024-01-15T22:14:28;98916.59;;;1.78;61.56
53868;BME280;41577;47.470;19.080;2024-01-15T22:14:45;98918.22;;;1.79;61.64
53868;BME280;41577;47.470;19.080;2024-01-15T22:15:03;98917.09;;;1.74;61.56
53868;BME280;41577;47.470;19.080;2024-01-15T22:15:19;98912.81;;;1.73;61.66
53868;BME280;41577;47.470;19.080;2024-01-15T22:15:36;98917.91;;;1.74;61.81
53868;BME280;41577;47.470;19.080;2024-01-15T22:15:53;98917.09;;;1.74;61.79
53868;BME280;41577;47.470;19.080;2024-01-15T22:16:10;98922.34;;;1.74;62.00
53868;BME280;41577;47.470;19.080;2024-01-15T22:16:26;98921.84;;;1.70;61.99
53868;BME280;41577;47.470;19.080;2024-01-15T22:16:43;98910.81;;;1.66;62.26
53868;BME280;41577;47.470;19.080;2024-01-15T22:17:00;98919.38;;;1.68;62.15
53868;BME280;41577;47.470;19.080;2024-01-15T22:17:16;98911.66;;;1.67;62.25
53868;BME280;41577;47.470;19.080;2024-01-15T22:17:33;98912.63;;;1.66;62.10
53868;BME280;41577;47.470;19.080;2024-01-15T22:17:50;98916.28;;;1.65;62.19
53868;BME280;41577;47.470;19.080;2024-01-15T22:18:07;98914.63;;;1.72;61.99
53868;BME280;41577;47.470;19.080;2024-01-15T22:18:24;98919.38;;;1.68;62.39
53868;BME280;41577;47.470;19.080;2024-01-15T22:18:41;98920.38;;;1.67;62.25
53868;BME280;41577;47.470;19.080;2024-01-15T22:19:46;98916.44;;;1.63;62.47
53868;BME280;41577;47.470;19.080;2024-01-15T22:20:03;98912.31;;;1.61;62.52
53868;BME280;41577;47.470;19.080;2024-01-15T22:20:20;98907.88;;;1.61;62.62
53868;BME280;41577;47.470;19.080;2024-01-15T22:20:37;98920.88;;;1.63;62.65
53868;BME280;41577;47.470;19.080;2024-01-15T22:20:54;98919.06;;;1.63;62.72
53868;BME280;41577;47.470;19.080;2024-01-15T22:21:11;98914.13;;;1.60;62.90
53868;BME280;41577;47.470;19.080;2024-01-15T22:21:27;98907.88;;;1.61;62.85
53868;BME280;41577;47.470;19.080;2024-01-15T22:21:45;98909.69;;;1.61;63.00
53868;BME280;41577;47.470;19.080;2024-01-15T22:22:02;98922.03;;;1.60;62.82
53868;BME280;41577;47.470;19.080;2024-01-15T22:22:18;98917.75;;;1.59;62.75
53868;BME280;41577;47.470;19.080;2024-01-15T22:22:35;98904.78;;;1.58;62.79
53868;BME280;41577;47.470;19.080;2024-01-15T22:22:52;98917.59;;;1.61;62.81
53868;BME280;41577;47.470;19.080;2024-01-15T22:23:08;98906.91;;;1.62;62.77
53868;BME280;41577;47.470;19.080;2024-01-15T22:23:25;98908.69;;;1.62;62.86
53868;BME280;41577;47.470;19.080;2024-01-15T22:23:42;98907.06;;;1.61;62.98
53868;BME280;41577;47.470;19.080;2024-01-15T22:23:59;98911.31;;;1.62;62.71
53868;BME280;41577;47.470;19.080;2024-01-15T22:24:15;98902.13;;;1.58;63.03
53868;BME280;41577;47.470;19.080;2024-01-15T22:24:32;98907.72;;;1.63;63.06
53868;BME280;41577;47.470;19.080;2024-01-15T22:24:49;98904.44;;;1.61;63.07
53868;BME280;41577;47.470;19.080;2024-01-15T22:25:06;98893.59;;;1.56;62.97
53868;BME280;41577;47.470;19.080;2024-01-15T22:25:23;98825.19;;;1.07;63.00
53868;BME280;41577;47.470;19.080;2024-01-15T22:25:40;98894.41;;;1.56;62.92
53868;BME280;41577;47.470;19.080;2024-01-15T22:25:57;98901.28;;;1.57;63.05
53868;BME280;41577;47.470;19.080;2024-01-15T22:26:13;98901.47;;;1.56;63.04
53868;BME280;41577;47.470;19.080;2024-01-15T22:26:30;98908.38;;;1.57;63.38
53868;BME280;41577;47.470;19.080;2024-01-15T22:26:47;98900.00;;;1.53;63.41
53868;BME280;41577;47.470;19.080;2024-01-15T22:27:04;98900.16;;;1.52;63.44
53868;BME280;41577;47.470;19.080;2024-01-15T22:27:23;98891.44;;;1.43;63.24
53868;BME280;41577;47.470;19.080;2024-01-15T22:27:40;98909.69;;;1.53;63.40
53868;BME280;41577;47.470;19.080;2024-01-15T22:27:57;98908.06;;;1.52;63.36
53868;BME280;41577;47.470;19.080;2024-01-15T22:28:13;98918.06;;;1.56;63.67
53868;BME280;41577;47.470;19.080;2024-01-15T22:28:30;98913.16;;;1.53;63.56
53868;BME280;41577;47.470;19.080;2024-01-15T22:28:47;98901.97;;;1.43;63.66
53868;BME280;41577;47.470;19.080;2024-01-15T22:29:04;98913.66;;;1.49;63.63
53868;BME280;41577;47.470;19.080;2024-01-15T22:29:21;98922.50;;;1.48;63.76
53868;BME280;41577;47.470;19.080;2024-01-15T22:29:37;98919.72;;;1.49;63.64
53868;BME280;41577;47.470;19.080;2024-01-15T22:29:54;98919.88;;;1.48;63.70
53868;BME280;41577;47.470;19.080;2024-01-15T22:30:11;98930.59;;;1.46;63.82
53868;BME280;41577;47.470;19.080;2024-01-15T22:30:28;98933.69;;;1.50;63.80
53868;BME280;41577;47.470;19.080;2024-01-15T22:30:45;98926.44;;;1.43;63.95
53868;BME280;41577;47.470;19.080;2024-01-15T22:31:01;98925.16;;;1.39;64.02
53868;BME280;41577;47.470;19.080;2024-01-15T22:31:18;98935.19;;;1.44;64.01
53868;BME280;41577;47.470;19.080;2024-01-15T22:31:35;98942.22;;;1.43;63.94
53868;BME280;41577;47.470;19.080;2024-01-15T22:31:52;98937.16;;;1.42;63.97
53868;BME280;41577;47.470;19.080;2024-01-15T22:32:08;98936.97;;;1.43;64.07
53868;BME280;41577;47.470;19.080;2024-01-15T22:32:25;98938.63;;;1.44;64.10
53868;BME280;41577;47.470;19.080;2024-01-15T22:32:46;98928.41;;;1.41;64.33
53868;BME280;41577;47.470;19.080;2024-01-15T22:33:04;98928.28;;;1.35;64.29
53868;BME280;41577;47.470;19.080;2024-01-15T22:33:21;98936.81;;;1.45;64.25
